Geneva, New York
Current Conditions -  °F | °C
As of 4:53 AM on Friday 28 Nov 2014 (Local Time) from KPEO Reporting Station
Light Snow Light Snow  
Wind Chill: 15°   Ceiling: 2400
Heat Index: 26°   Visibility: 4mi
Dew Point: 19°   Wind: 13mph
Humidity: 75%   Direction: 290°WNW
Pressure: 30.12"   Gusts: 25mph
Location:  42.87°N, 76.98°W
Report Text: KPEO 280953Z AUTO 29011G22KT 4SM -SN OVC024 M03/M07 A3012 RMK AO2 PK WND 28027/0932 SLP213 P0000 T10331072
Loading
Personal Weather Stations






























Interactive Weather Map New forecast layout! Learn more

10-Day Weather Forecast

Advertisements
Track Severe Weather on mobile